sensor_id;sensor_type;location;lat;lon;timestamp;pressure;altitude;pressure_sealevel;temperature;humidity
6038;BME280;3047;42.600;23.470;2023-02-01T00:01:05;93063.47;;;1.25;100.00
6038;BME280;3047;42.600;23.470;2023-02-01T00:03:32;93061.81;;;1.27;100.00
6038;BME280;3047;42.600;23.470;2023-02-01T00:06:00;93029.31;;;1.01;100.00
6038;BME280;3047;42.600;23.470;2023-02-01T00:08:27;93040.22;;;1.18;100.00
6038;BME280;3047;42.600;23.470;2023-02-01T00:10:58;93043.56;;;1.25;100.00
6038;BME280;3047;42.600;23.470;2023-02-01T00:13:30;93062.66;;;1.29;100.00
6038;BME280;3047;42.600;23.470;2023-02-01T00:16:05;93061.00;;;1.28;100.00
6038;BME280;3047;42.600;23.470;2023-02-01T00:18:32;93002.72;;;0.88;100.00
6038;BME280;3047;42.600;23.470;2023-02-01T00:20:59;93056.84;;;1.27;100.00
6038;BME280;3047;42.600;23.470;2023-02-01T00:23:26;93059.31;;;1.24;100.00
6038;BME280;3047;42.600;23.470;2023-02-01T00:25:53;93054.34;;;1.27;100.00
6038;BME280;3047;42.600;23.470;2023-02-01T00:28:20;93038.56;;;1.20;100.00
6038;BME280;3047;42.600;23.470;2023-02-01T00:30:47;93049.41;;;1.32;100.00
6038;BME280;3047;42.600;23.470;2023-02-01T00:33:23;93051.03;;;1.22;100.00
6038;BME280;3047;42.600;23.470;2023-02-01T00:35:49;93055.19;;;1.29;100.00
6038;BME280;3047;42.600;23.470;2023-02-01T00:38:16;93050.19;;;1.23;100.00
6038;BME280;3047;42.600;23.470;2023-02-01T00:40:43;93045.25;;;1.26;100.00
6038;BME280;3047;42.600;23.470;2023-02-01T00:43:10;93055.19;;;1.29;100.00
6038;BME280;3047;42.600;23.470;2023-02-01T00:45:36;93046.91;;;1.27;100.00
6038;BME280;3047;42.600;23.470;2023-02-01T00:48:04;93044.38;;;1.24;100.00
6038;BME280;3047;42.600;23.470;2023-02-01T00:50:32;93043.53;;;1.19;100.00
6038;BME280;3047;42.600;23.470;2023-02-01T00:52:59;93049.34;;;1.21;100.00
6038;BME280;3047;42.600;23.470;2023-02-01T00:55:26;93042.75;;;1.28;100.00
6038;BME280;3047;42.600;23.470;2023-02-01T00:57:52;93041.91;;;1.22;100.00
6038;BME280;3047;42.600;23.470;2023-02-01T01:00:19;93046.91;;;1.33;100.00
6038;BME280;3047;42.600;23.470;2023-02-01T01:02:46;93043.59;;;1.31;100.00
6038;BME280;3047;42.600;23.470;2023-02-01T01:05:13;93048.53;;;1.22;100.00
6038;BME280;3047;42.600;23.470;2023-02-01T01:07:41;93033.56;;;1.20;100.00
6038;BME280;3047;42.600;23.470;2023-02-01T01:10:08;93041.94;;;1.30;100.00
6038;BME280;3047;42.600;23.470;2023-02-01T01:12:35;93041.13;;;1.34;100.00
6038;BME280;3047;42.600;23.470;2023-02-01T01:15:02;93044.38;;;1.24;100.00
6038;BME280;3047;42.600;23.470;2023-02-01T01:17:31;93041.13;;;1.31;100.00
6038;BME280;3047;42.600;23.470;2023-02-01T01:19:58;93041.09;;;1.33;100.00
6038;BME280;3047;42.600;23.470;2023-02-01T01:22:24;93027.72;;;1.11;100.00
6038;BME280;3047;42.600;23.470;2023-02-01T01:24:53;93037.69;;;1.15;100.00
6038;BME280;3047;42.600;23.470;2023-02-01T01:27:19;93044.31;;;1.10;100.00
6038;BME280;3047;42.600;23.470;2023-02-01T01:29:49;93041.84;;;1.16;100.00
6038;BME280;3047;42.600;23.470;2023-02-01T01:32:16;93042.72;;;1.23;99.41
6038;BME280;3047;42.600;23.470;2023-02-01T01:34:42;93042.59;;;1.05;99.13
6038;BME280;3047;42.600;23.470;2023-02-01T01:37:09;93052.50;;;0.94;99.80
6038;BME280;3047;42.600;23.470;2023-02-01T01:39:36;93051.59;;;0.87;99.28
6038;BME280;3047;42.600;23.470;2023-02-01T01:42:04;93002.44;;;0.53;99.65
6038;BME280;3047;42.600;23.470;2023-02-01T01:44:56;93052.47;;;0.91;100.00
6038;BME280;3047;42.600;23.470;2023-02-01T01:47:24;93052.38;;;0.80;98.90
6038;BME280;3047;42.600;23.470;2023-02-01T01:49:51;93059.91;;;0.86;98.67
6038;BME280;3047;42.600;23.470;2023-02-01T01:52:18;93066.44;;;0.73;100.00
6038;BME280;3047;42.600;23.470;2023-02-01T01:54:48;93058.25;;;0.85;99.78
6038;BME280;3047;42.600;23.470;2023-02-01T01:57:21;93061.59;;;0.96;99.10
6038;BME280;3047;42.600;23.470;2023-02-01T01:59:54;93057.47;;;0.95;98.87
6038;BME280;3047;42.600;23.470;2023-02-01T02:02:22;93056.59;;;0.90;98.42
6038;BME280;3047;42.600;23.470;2023-02-01T02:04:50;93018.38;;;0.76;97.26
6038;BME280;3047;42.600;23.470;2023-02-01T02:07:21;93020.81;;;0.70;98.09
6038;BME280;3047;42.600;23.470;2023-02-01T02:09:48;93053.28;;;0.91;97.66
6038;BME280;3047;42.600;23.470;2023-02-01T02:12:17;93053.28;;;0.93;98.08
6038;BME280;3047;42.600;23.470;2023-02-01T02:14:44;93050.84;;;0.96;96.87
6038;BME280;3047;42.600;23.470;2023-02-01T02:17:23;93059.19;;;1.03;97.10
6038;BME280;3047;42.600;23.470;2023-02-01T02:26:24;93035.78;;;0.74;97.12
6038;BME280;3047;42.600;23.470;2023-02-01T02:32:20;93041.47;;;0.61;96.64
6038;BME280;3047;42.600;23.470;2023-02-01T02:34:54;93042.31;;;0.62;97.54
6038;BME280;3047;42.600;23.470;2023-02-01T02:37:27;93055.59;;;0.67;96.75
6038;BME280;3047;42.600;23.470;2023-02-01T02:39:59;93057.28;;;0.72;95.69
6038;BME280;3047;42.600;23.470;2023-02-01T02:42:37;93032.19;;;0.43;96.05
6038;BME280;3047;42.600;23.470;2023-02-01T02:45:28;93058.88;;;0.61;96.83
6038;BME280;3047;42.600;23.470;2023-02-01T02:48:22;93053.03;;;0.58;96.32
6038;BME280;3047;42.600;23.470;2023-02-01T02:50:58;93052.25;;;0.65;96.49
6038;BME280;3047;42.600;23.470;2023-02-01T02:53:48;93049.72;;;0.59;96.55
6038;BME280;3047;42.600;23.470;2023-02-01T02:56:37;93049.72;;;0.59;97.32
6038;BME280;3047;42.600;23.470;2023-02-01T02:59:24;93037.22;;;0.48;97.57
6038;BME280;3047;42.600;23.470;2023-02-01T03:02:11;93026.34;;;0.34;97.46
6038;BME280;3047;42.600;23.470;2023-02-01T03:04:56;93051.34;;;0.54;98.85
6038;BME280;3047;42.600;23.470;2023-02-01T03:10:42;93047.22;;;0.56;98.85
6038;BME280;3047;42.600;23.470;2023-02-01T03:13:14;93053.84;;;0.54;99.15
6038;BME280;3047;42.600;23.470;2023-02-01T03:15:50;93053.03;;;0.61;98.52
6038;BME280;3047;42.600;23.470;2023-02-01T03:18:22;93072.09;;;0.60;96.95
6038;BME280;3047;42.600;23.470;2023-02-01T03:20:51;93068.81;;;0.61;97.75
6038;BME280;3047;42.600;23.470;2023-02-01T03:23:22;93061.41;;;0.67;97.38
6038;BME280;3047;42.600;23.470;2023-02-01T03:25:53;93034.78;;;0.56;96.18
6038;BME280;3047;42.600;23.470;2023-02-01T03:28:23;93078.03;;;0.73;95.25
6038;BME280;3047;42.600;23.470;2023-02-01T03:30:52;93076.34;;;0.70;94.94
6038;BME280;3047;42.600;23.470;2023-02-01T03:33:21;93073.88;;;0.77;94.63
6038;BME280;3047;42.600;23.470;2023-02-01T03:35:57;93077.19;;;0.76;95.74
6038;BME280;3047;42.600;23.470;2023-02-01T03:38:30;93055.44;;;0.47;95.70
6038;BME280;3047;42.600;23.470;2023-02-01T03:41:06;93038.91;;;0.49;94.78
6038;BME280;3047;42.600;23.470;2023-02-01T03:43:39;93070.53;;;0.70;95.26
6038;BME280;3047;42.600;23.470;2023-02-01T03:46:12;93092.09;;;0.71;95.29
6038;BME280;3047;42.600;23.470;2023-02-01T03:48:44;93085.50;;;0.74;95.50
6038;BME280;3047;42.600;23.470;2023-02-01T03:51:12;93085.50;;;0.73;95.30
6038;BME280;3047;42.600;23.470;2023-02-01T03:53:40;93058.91;;;0.66;95.67
6038;BME280;3047;42.600;23.470;2023-02-01T03:56:13;93083.03;;;0.78;96.26
6038;BME280;3047;42.600;23.470;2023-02-01T03:58:40;93082.22;;;0.79;97.07
6038;BME280;3047;42.600;23.470;2023-02-01T04:01:23;93081.47;;;0.90;95.78
6038;BME280;3047;42.600;23.470;2023-02-01T04:03:49;93073.91;;;0.80;94.93
6038;BME280;3047;42.600;23.470;2023-02-01T04:06:17;93074.75;;;0.80;96.44
6038;BME280;3047;42.600;23.470;2023-02-01T04:08:44;93075.56;;;0.78;96.18
6038;BME280;3047;42.600;23.470;2023-02-01T04:11:10;93078.06;;;0.78;96.07
6038;BME280;3047;42.600;23.470;2023-02-01T04:13:38;93086.41;;;0.87;95.77
6038;BME280;3047;42.600;23.470;2023-02-01T04:16:06;93053.88;;;0.60;97.02
6038;BME280;3047;42.600;23.470;2023-02-01T04:18:32;93065.63;;;0.79;96.76
6038;BME280;3047;42.600;23.470;2023-02-01T04:21:00;93078.06;;;0.79;96.50
6038;BME280;3047;42.600;23.470;2023-02-01T04:23:29;93073.88;;;0.73;96.59
6038;BME280;3047;42.600;23.470;2023-02-01T04:25:59;93072.25;;;0.77;96.39
6038;BME280;3047;42.600;23.470;2023-02-01T04:28:25;93068.09;;;0.73;97.01
6038;BME280;3047;42.600;23.470;2023-02-01T04:30:54;93082.28;;;0.88;96.75
6038;BME280;3047;42.600;23.470;2023-02-01T04:33:20;93049.72;;;0.60;97.44
6038;BME280;3047;42.600;23.470;2023-02-01T04:35:47;93083.09;;;0.87;97.24
6038;BME280;3047;42.600;23.470;2023-02-01T04:38:14;93085.69;;;0.99;97.12
6038;BME280;3047;42.600;23.470;2023-02-01T04:40:41;93059.16;;;0.98;96.20
6038;BME280;3047;42.600;23.470;2023-02-01T04:43:07;93081.53;;;1.01;97.41
6038;BME280;3047;42.600;23.470;2023-02-01T04:45:34;93079.00;;;0.90;98.63
6038;BME280;3047;42.600;23.470;2023-02-01T04:48:03;92959.03;;;0.08;98.61
6038;BME280;3047;42.600;23.470;2023-02-01T04:50:29;93024.88;;;0.57;99.39
6038;BME280;3047;42.600;23.470;2023-02-01T04:52:56;93072.28;;;0.82;99.66
6038;BME280;3047;42.600;23.470;2023-02-01T04:55:23;93067.31;;;0.85;100.00
6038;BME280;3047;42.600;23.470;2023-02-01T04:57:49;93074.84;;;0.89;100.00
6038;BME280;3047;42.600;23.470;2023-02-01T05:00:17;93073.13;;;0.82;100.00
6038;BME280;3047;42.600;23.470;2023-02-01T05:02:44;93065.72;;;0.90;99.81
6038;BME280;3047;42.600;23.470;2023-02-01T05:05:12;93075.66;;;0.93;100.00
6038;BME280;3047;42.600;23.470;2023-02-01T05:07:38;93099.00;;;1.06;100.00
6038;BME280;3047;42.600;23.470;2023-02-01T05:10:06;93074.81;;;0.88;100.00
6038;BME280;3047;42.600;23.470;2023-02-01T05:12:33;93107.22;;;0.98;100.00
6038;BME280;3047;42.600;23.470;2023-02-01T05:15:17;93111.41;;;1.03;100.00
6038;BME280;3047;42.600;23.470;2023-02-01T05:17:44;93111.44;;;1.06;100.00
6038;BME280;3047;42.600;23.470;2023-02-01T05:20:12;93117.25;;;1.06;100.00
6038;BME280;3047;42.600;23.470;2023-02-01T05:22:39;93108.09;;;1.04;100.00
6038;BME280;3047;42.600;23.470;2023-02-01T05:25:07;93102.22;;;0.97;100.00
6038;BME280;3047;42.600;23.470;2023-02-01T05:27:34;93118.75;;;0.87;100.00
6038;BME280;3047;42.600;23.470;2023-02-01T05:30:02;93106.34;;;0.90;100.00
6038;BME280;3047;42.600;23.470;2023-02-01T05:32:29;93095.53;;;0.88;100.00
6038;BME280;3047;42.600;23.470;2023-02-01T05:34:56;93090.59;;;0.90;100.00
6038;BME280;3047;42.600;23.470;2023-02-01T05:37:24;93113.97;;;1.10;100.00
6038;BME280;3047;42.600;23.470;2023-02-01T05:39:51;93129.75;;;1.14;100.00
6038;BME280;3047;42.600;23.470;2023-02-01T05:42:18;93117.34;;;1.18;100.00
6038;BME280;3047;42.600;23.470;2023-02-01T05:44:45;93108.09;;;1.02;100.00
6038;BME280;3047;42.600;23.470;2023-02-01T05:47:11;93096.41;;;0.90;100.00
6038;BME280;3047;42.600;23.470;2023-02-01T05:49:38;93107.28;;;1.06;100.00
6038;BME280;3047;42.600;23.470;2023-02-01T05:52:05;93116.50;;;1.19;100.00
6038;BME280;3047;42.600;23.470;2023-02-01T05:54:33;93119.84;;;1.23;100.00
6038;BME280;3047;42.600;23.470;2023-02-01T05:57:00;93114.03;;;1.26;100.00
6038;BME280;3047;42.600;23.470;2023-02-01T05:59:27;93051.56;;;0.84;100.00
6038;BME280;3047;42.600;23.470;2023-02-01T06:01:54;93119.97;;;1.38;100.00
6038;BME280;3047;42.600;23.470;2023-02-01T06:04:21;93083.34;;;1.25;100.00
6038;BME280;3047;42.600;23.470;2023-02-01T06:06:48;93113.28;;;1.33;100.00
6038;BME280;3047;42.600;23.470;2023-02-01T06:09:15;93119.06;;;1.33;100.00
6038;BME280;3047;42.600;23.470;2023-02-01T06:11:43;93129.06;;;1.36;100.00
6038;BME280;3047;42.600;23.470;2023-02-01T06:14:10;93113.28;;;1.34;100.00
6038;BME280;3047;42.600;23.470;2023-02-01T06:16:37;93111.72;;;1.47;100.00
6038;BME280;3047;42.600;23.470;2023-02-01T06:19:04;93111.69;;;1.42;100.00
6038;BME280;3047;42.600;23.470;2023-02-01T06:21:31;93117.47;;;1.38;100.00
6038;BME280;3047;42.600;23.470;2023-02-01T06:23:58;93055.91;;;1.13;100.00
6038;BME280;3047;42.600;23.470;2023-02-01T06:26:25;93098.38;;;1.40;100.00
6038;BME280;3047;42.600;23.470;2023-02-01T06:28:55;93132.53;;;1.61;99.39
6038;BME280;3047;42.600;23.470;2023-02-01T06:31:22;93120.09;;;1.60;98.83
6038;BME280;3047;42.600;23.470;2023-02-01T06:33:51;93116.75;;;1.55;99.88
6038;BME280;3047;42.600;23.470;2023-02-01T06:36:18;93125.00;;;1.51;100.00
6038;BME280;3047;42.600;23.470;2023-02-01T06:38:46;93132.56;;;1.69;99.96
6038;BME280;3047;42.600;23.470;2023-02-01T06:41:13;93129.31;;;1.81;97.21
6038;BME280;3047;42.600;23.470;2023-02-01T06:43:40;93125.16;;;1.80;97.26
6038;BME280;3047;42.600;23.470;2023-02-01T06:46:11;93127.56;;;1.66;97.41
6038;BME280;3047;42.600;23.470;2023-02-01T06:48:39;93132.56;;;1.69;97.67
6038;BME280;3047;42.600;23.470;2023-02-01T06:51:06;93140.06;;;1.72;98.68
6038;BME280;3047;42.600;23.470;2023-02-01T06:53:32;93140.94;;;1.79;97.28
6038;BME280;3047;42.600;23.470;2023-02-01T06:56:01;93131.75;;;1.70;97.93
6038;BME280;3047;42.600;23.470;2023-02-01T06:58:28;93134.22;;;1.68;98.94
6038;BME280;3047;42.600;23.470;2023-02-01T07:00:55;93129.28;;;1.76;97.42
6038;BME280;3047;42.600;23.470;2023-02-01T07:03:23;93150.97;;;1.91;97.08
6038;BME280;3047;42.600;23.470;2023-02-01T07:05:55;93158.47;;;2.00;95.92
6038;BME280;3047;42.600;23.470;2023-02-01T07:08:23;93152.66;;;2.01;96.60
6038;BME280;3047;42.600;23.470;2023-02-01T07:10:50;93160.19;;;2.13;95.23
6038;BME280;3047;42.600;23.470;2023-02-01T07:13:17;93180.94;;;2.14;94.85
6038;BME280;3047;42.600;23.470;2023-02-01T07:15:44;93177.69;;;2.19;94.52
6038;BME280;3047;42.600;23.470;2023-02-01T07:18:12;93179.34;;;2.23;94.16
6038;BME280;3047;42.600;23.470;2023-02-01T07:20:41;93184.31;;;2.20;94.61
6038;BME280;3047;42.600;23.470;2023-02-01T07:23:08;93185.06;;;2.04;95.51
6038;BME280;3047;42.600;23.470;2023-02-01T07:25:35;93176.81;;;2.13;94.01
6038;BME280;3047;42.600;23.470;2023-02-01T07:28:02;93190.09;;;2.18;94.69
6038;BME280;3047;42.600;23.470;2023-02-01T07:30:29;93202.56;;;2.16;93.77
6038;BME280;3047;42.600;23.470;2023-02-01T07:32:56;93204.25;;;2.19;93.78
6038;BME280;3047;42.600;23.470;2023-02-01T07:35:26;93209.22;;;2.17;93.82
6038;BME280;3047;42.600;23.470;2023-02-01T07:37:54;93203.38;;;2.12;94.29
6038;BME280;3047;42.600;23.470;2023-02-01T07:40:23;93207.50;;;2.09;94.33
6038;BME280;3047;42.600;23.470;2023-02-01T07:42:53;93203.41;;;2.20;94.31
6038;BME280;3047;42.600;23.470;2023-02-01T07:45:21;93180.13;;;2.18;93.89
6038;BME280;3047;42.600;23.470;2023-02-01T07:47:48;93186.81;;;2.19;94.44
6038;BME280;3047;42.600;23.470;2023-02-01T07:50:15;93184.28;;;2.16;93.72
6038;BME280;3047;42.600;23.470;2023-02-01T07:52:42;93211.72;;;2.20;94.15
6038;BME280;3047;42.600;23.470;2023-02-01T07:55:10;93192.63;;;2.21;93.66
6038;BME280;3047;42.600;23.470;2023-02-01T07:57:37;93211.75;;;2.27;93.93
6038;BME280;3047;42.600;23.470;2023-02-01T08:00:04;93223.44;;;2.41;92.24
6038;BME280;3047;42.600;23.470;2023-02-01T08:02:48;93222.59;;;2.36;92.27
6038;BME280;3047;42.600;23.470;2023-02-01T08:05:15;93181.81;;;2.19;92.16
6038;BME280;3047;42.600;23.470;2023-02-01T08:07:42;93179.28;;;2.10;92.73
6038;BME280;3047;42.600;23.470;2023-02-01T08:10:10;93230.97;;;2.55;91.30
6038;BME280;3047;42.600;23.470;2023-02-01T08:12:38;93175.19;;;2.19;90.85
6038;BME280;3047;42.600;23.470;2023-02-01T08:15:07;93217.63;;;2.42;91.62
6038;BME280;3047;42.600;23.470;2023-02-01T08:17:33;93174.25;;;2.02;93.02
6038;BME280;3047;42.600;23.470;2023-02-01T08:20:00;93225.06;;;2.32;93.11
6038;BME280;3047;42.600;23.470;2023-02-01T08:22:31;93226.78;;;2.42;93.20
6038;BME280;3047;42.600;23.470;2023-02-01T08:24:58;93224.25;;;2.33;94.39
6038;BME280;3047;42.600;23.470;2023-02-01T08:27:27;93233.44;;;2.44;92.22
6038;BME280;3047;42.600;23.470;2023-02-01T08:29:54;93220.22;;;2.70;91.14
6038;BME280;3047;42.600;23.470;2023-02-01T08:32:22;93234.34;;;2.71;90.79
6038;BME280;3047;42.600;23.470;2023-02-01T08:34:48;93232.69;;;2.68;90.10
6038;BME280;3047;42.600;23.470;2023-02-01T08:37:15;93239.38;;;2.76;91.31
6038;BME280;3047;42.600;23.470;2023-02-01T08:39:42;93232.69;;;2.61;89.97
6038;BME280;3047;42.600;23.470;2023-02-01T08:42:10;93237.72;;;2.82;90.22
6038;BME280;3047;42.600;23.470;2023-02-01T08:44:55;93244.38;;;2.82;89.80
6038;BME280;3047;42.600;23.470;2023-02-01T08:47:22;93230.22;;;2.79;89.41
6038;BME280;3047;42.600;23.470;2023-02-01T08:49:49;93250.19;;;2.81;90.52
6038;BME280;3047;42.600;23.470;2023-02-01T08:52:17;93201.91;;;2.53;89.88
6038;BME280;3047;42.600;23.470;2023-02-01T08:54:43;93236.91;;;2.85;89.55
6038;BME280;3047;42.600;23.470;2023-02-01T08:57:10;93231.13;;;2.92;89.70
6038;BME280;3047;42.600;23.470;2023-02-01T08:59:37;93196.13;;;2.67;89.58
6038;BME280;3047;42.600;23.470;2023-02-01T09:02:05;93220.31;;;2.93;89.33
6038;BME280;3047;42.600;23.470;2023-02-01T09:04:32;93182.81;;;2.70;88.43
6038;BME280;3047;42.600;23.470;2023-02-01T09:06:59;93233.63;;;3.10;88.43
6038;BME280;3047;42.600;23.470;2023-02-01T09:09:27;93228.63;;;3.12;88.62
6038;BME280;3047;42.600;23.470;2023-02-01T09:11:54;93233.69;;;3.30;88.44
6038;BME280;3047;42.600;23.470;2023-02-01T09:14:21;93233.69;;;3.33;86.42
6038;BME280;3047;42.600;23.470;2023-02-01T09:16:48;93237.81;;;3.27;87.05
6038;BME280;3047;42.600;23.470;2023-02-01T09:19:16;93246.19;;;3.41;87.12
6038;BME280;3047;42.600;23.470;2023-02-01T09:21:42;93247.81;;;3.36;86.92
6038;BME280;3047;42.600;23.470;2023-02-01T09:24:10;93252.81;;;3.48;86.45
6038;BME280;3047;42.600;23.470;2023-02-01T09:26:37;93251.97;;;3.35;86.82
6038;BME280;3047;42.600;23.470;2023-02-01T09:29:04;93255.31;;;3.30;87.12
6038;BME280;3047;42.600;23.470;2023-02-01T09:31:36;93249.47;;;3.40;86.33
6038;BME280;3047;42.600;23.470;2023-02-01T09:34:03;93248.63;;;3.32;87.72
6038;BME280;3047;42.600;23.470;2023-02-01T09:36:31;93248.66;;;3.30;86.21
6038;BME280;3047;42.600;23.470;2023-02-01T09:38:58;93227.81;;;3.23;86.55
6038;BME280;3047;42.600;23.470;2023-02-01T09:41:43;93232.00;;;3.21;87.63
6038;BME280;3047;42.600;23.470;2023-02-01T09:44:23;93237.84;;;3.39;87.27
6038;BME280;3047;42.600;23.470;2023-02-01T09:46:58;93233.69;;;3.45;88.34
6038;BME280;3047;42.600;23.470;2023-02-01T09:49:28;93221.19;;;3.59;88.11
6038;BME280;3047;42.600;23.470;2023-02-01T09:52:00;93232.03;;;3.61;87.39
6038;BME280;3047;42.600;23.470;2023-02-01T09:54:40;93218.69;;;3.71;86.12
6038;BME280;3047;42.600;23.470;2023-02-01T09:57:11;93198.72;;;3.76;85.70
6038;BME280;3047;42.600;23.470;2023-02-01T09:59:43;93219.50;;;3.89;84.72
6038;BME280;3047;42.600;23.470;2023-02-01T10:02:13;93212.88;;;3.89;84.74
6038;BME280;3047;42.600;23.470;2023-02-01T10:04:41;93204.50;;;3.96;85.08
6038;BME280;3047;42.600;23.470;2023-02-01T10:07:21;93198.63;;;4.13;83.13
6038;BME280;3047;42.600;23.470;2023-02-01T10:09:58;93198.66;;;4.07;83.01
6038;BME280;3047;42.600;23.470;2023-02-01T10:15:26;93201.94;;;4.27;83.27
6038;BME280;3047;42.600;23.470;2023-02-01T10:20:52;93182.72;;;4.41;81.99
6038;BME280;3047;42.600;23.470;2023-02-01T10:23:39;93186.06;;;4.40;83.85
6038;BME280;3047;42.600;23.470;2023-02-01T10:26:15;93189.31;;;4.67;81.07
6038;BME280;3047;42.600;23.470;2023-02-01T10:28:47;93181.81;;;4.64;81.65
6038;BME280;3047;42.600;23.470;2023-02-01T10:31:16;93186.78;;;4.70;81.22
6038;BME280;3047;42.600;23.470;2023-02-01T10:33:46;93160.06;;;4.77;80.39
6038;BME280;3047;42.600;23.470;2023-02-01T10:36:21;93177.50;;;4.90;79.58
6038;BME280;3047;42.600;23.470;2023-02-01T10:38:49;93166.63;;;4.93;79.35
6038;BME280;3047;42.600;23.470;2023-02-01T10:41:18;93159.09;;;4.97;77.95
6038;BME280;3047;42.600;23.470;2023-02-01T10:43:49;93153.94;;;5.17;79.04
6038;BME280;3047;42.600;23.470;2023-02-01T10:46:17;93139.03;;;5.07;78.25
6038;BME280;3047;42.600;23.470;2023-02-01T10:48:45;93139.75;;;5.18;79.28
6038;BME280;3047;42.600;23.470;2023-02-01T10:51:15;93148.81;;;5.36;78.63
6038;BME280;3047;42.600;23.470;2023-02-01T10:53:50;93150.41;;;5.46;76.95
6038;BME280;3047;42.600;23.470;2023-02-01T10:56:22;93161.31;;;5.37;77.53
6038;BME280;3047;42.600;23.470;2023-02-01T10:58:49;93156.22;;;5.51;77.20
6038;BME280;3047;42.600;23.470;2023-02-01T11:01:19;93160.31;;;5.58;75.98
6038;BME280;3047;42.600;23.470;2023-02-01T11:03:52;93155.25;;;5.67;75.88
6038;BME280;3047;42.600;23.470;2023-02-01T11:06:26;93156.03;;;5.73;76.01
6038;BME280;3047;42.600;23.470;2023-02-01T11:08:56;93159.28;;;5.79;73.93
6038;BME280;3047;42.600;23.470;2023-02-01T11:11:23;93156.72;;;5.87;72.96
6038;BME280;3047;42.600;23.470;2023-02-01T11:13:55;93171.13;;;5.65;73.16
6038;BME280;3047;42.600;23.470;2023-02-01T11:16:47;93127.78;;;5.57;75.32
6038;BME280;3047;42.600;23.470;2023-02-01T11:19:16;93166.13;;;5.62;73.41
6038;BME280;3047;42.600;23.470;2023-02-01T11:21:44;93126.31;;;5.31;75.68
6038;BME280;3047;42.600;23.470;2023-02-01T11:24:22;93145.59;;;5.18;74.69
6038;BME280;3047;42.600;23.470;2023-02-01T11:26:49;93166.50;;;5.13;75.78
6038;BME280;3047;42.600;23.470;2023-02-01T11:29:19;93152.41;;;5.00;76.34
6038;BME280;3047;42.600;23.470;2023-02-01T11:31:55;93137.50;;;4.83;76.18
6038;BME280;3047;42.600;23.470;2023-02-01T11:34:25;93131.66;;;4.81;76.58
6038;BME280;3047;42.600;23.470;2023-02-01T11:36:57;93130.94;;;4.63;77.43
6038;BME280;3047;42.600;23.470;2023-02-01T11:39:29;93140.13;;;4.60;78.94
6038;BME280;3047;42.600;23.470;2023-02-01T11:42:02;93140.94;;;4.65;78.96
6038;BME280;3047;42.600;23.470;2023-02-01T11:44:35;93140.06;;;4.72;77.67
6038;BME280;3047;42.600;23.470;2023-02-01T11:47:18;93136.69;;;4.76;78.70
6038;BME280;3047;42.600;23.470;2023-02-01T11:49:46;93130.88;;;4.76;77.74
6038;BME280;3047;42.600;23.470;2023-02-01T11:52:20;93129.97;;;4.87;77.33
6038;BME280;3047;42.600;23.470;2023-02-01T11:55:02;93122.41;;;4.93;77.87
6038;BME280;3047;42.600;23.470;2023-02-01T11:57:44;93107.09;;;5.30;77.49
6038;BME280;3047;42.600;23.470;2023-02-01T12:00:51;93092.03;;;5.38;76.50
6038;BME280;3047;42.600;23.470;2023-02-01T12:03:54;93106.00;;;5.63;76.24
6038;BME280;3047;42.600;23.470;2023-02-01T12:06:31;93099.91;;;5.86;76.53
6038;BME280;3047;42.600;23.470;2023-02-01T12:09:27;93093.94;;;6.01;74.96
6038;BME280;3047;42.600;23.470;2023-02-01T12:12:04;93086.53;;;5.88;73.92
6038;BME280;3047;42.600;23.470;2023-02-01T12:14:47;93074.63;;;6.07;74.32
6038;BME280;3047;42.600;23.470;2023-02-01T12:20:31;93098.53;;;6.37;72.99
6038;BME280;3047;42.600;23.470;2023-02-01T12:23:11;93104.56;;;6.23;72.57
6038;BME280;3047;42.600;23.470;2023-02-01T12:25:58;93107.16;;;6.13;72.37
6038;BME280;3047;42.600;23.470;2023-02-01T12:28:45;93104.81;;;6.01;72.66
6038;BME280;3047;42.600;23.470;2023-02-01T12:31:34;93055.03;;;5.64;74.60
6038;BME280;3047;42.600;23.470;2023-02-01T12:34:22;93100.50;;;6.11;75.21
6038;BME280;3047;42.600;23.470;2023-02-01T12:36:57;93077.09;;;6.13;74.63
6038;BME280;3047;42.600;23.470;2023-02-01T12:39:31;93098.69;;;6.24;73.14
6038;BME280;3047;42.600;23.470;2023-02-01T12:42:01;93101.19;;;6.25;72.95
6038;BME280;3047;42.600;23.470;2023-02-01T12:44:37;93107.91;;;6.22;73.27
6038;BME280;3047;42.600;23.470;2023-02-01T12:47:14;93092.84;;;6.23;71.69
6038;BME280;3047;42.600;23.470;2023-02-01T12:49:53;93090.47;;;6.12;72.67
6038;BME280;3047;42.600;23.470;2023-02-01T12:52:27;93107.91;;;6.22;71.56
6038;BME280;3047;42.600;23.470;2023-02-01T12:55:05;93119.69;;;6.15;73.06
6038;BME280;3047;42.600;23.470;2023-02-01T12:57:35;93095.47;;;6.14;73.63
6038;BME280;3047;42.600;23.470;2023-02-01T13:00:15;93097.13;;;6.16;72.34
6038;BME280;3047;42.600;23.470;2023-02-01T13:02:52;93098.88;;;6.07;72.28
6038;BME280;3047;42.600;23.470;2023-02-01T13:05:24;93093.97;;;5.98;73.26
6038;BME280;3047;42.600;23.470;2023-02-01T13:07:58;93080.72;;;5.83;73.70
6038;BME280;3047;42.600;23.470;2023-02-01T13:10:32;93094.75;;;6.03;71.91
6038;BME280;3047;42.600;23.470;2023-02-01T13:13:04;93058.22;;;5.79;71.89
6038;BME280;3047;42.600;23.470;2023-02-01T13:15:42;93079.84;;;5.89;71.91
6038;BME280;3047;42.600;23.470;2023-02-01T13:18:14;93069.00;;;5.85;72.69
6038;BME280;3047;42.600;23.470;2023-02-01T13:20:49;93076.59;;;5.78;72.29
6038;BME280;3047;42.600;23.470;2023-02-01T13:23:23;93069.19;;;5.67;72.02
6038;BME280;3047;42.600;23.470;2023-02-01T13:25:52;93061.13;;;5.40;72.14
6038;BME280;3047;42.600;23.470;2023-02-01T13:28:25;93083.53;;;5.56;71.83
6038;BME280;3047;42.600;23.470;2023-02-01T13:31:10;93097.78;;;5.49;72.98
6038;BME280;3047;42.600;23.470;2023-02-01T13:33:51;93063.69;;;5.33;73.14
6038;BME280;3047;42.600;23.470;2023-02-01T13:36:41;93069.53;;;5.35;71.57
6038;BME280;3047;42.600;23.470;2023-02-01T13:39:26;93085.28;;;5.46;72.19
6038;BME280;3047;42.600;23.470;2023-02-01T13:41:58;93085.38;;;5.35;73.65
6038;BME280;3047;42.600;23.470;2023-02-01T13:44:29;93041.47;;;4.99;73.99
6038;BME280;3047;42.600;23.470;2023-02-01T13:47:03;93036.41;;;5.02;73.07
6038;BME280;3047;42.600;23.470;2023-02-01T13:49:38;93083.69;;;5.37;73.16
6038;BME280;3047;42.600;23.470;2023-02-01T13:52:22;93077.16;;;5.23;71.82
6038;BME280;3047;42.600;23.470;2023-02-01T13:55:01;93078.81;;;5.20;73.25
6038;BME280;3047;42.600;23.470;2023-02-01T13:57:37;93084.72;;;5.15;72.01
6038;BME280;3047;42.600;23.470;2023-02-01T14:00:20;93074.75;;;5.06;71.83
6038;BME280;3047;42.600;23.470;2023-02-01T14:03:12;93076.41;;;5.10;71.02